サマーラ の空港の天気 - METARとTAF

クルモフ国際空港 ( UWWW / KUF ) - ロシア サマーラ
飛行場実況気象(Metar)
観測時間07/05 07:00 MSK (07/05 04:00 UTC)
風向・風速北北東 5m/s
視程10km以上
天気現象
なし
気温14℃
湿度67%
気圧1014hPa
METARUWWW 050400Z 02005MPS CAVOK 14/08 Q1014 R33/CLRD60 NOSIG RMK QFE749/0999
過去の天気等 Google飛行場航空写真 Wunderground天気予報

過去48時間のMETAR

飛行場予報(TAF)
発表時間: 7/05 04:52 MSK (7/05 01:52 UTC)
予報対象時間: 5日6時 MSK ~ 6日6時 MSK
風向・風速北 6m/s 瞬間風速 12m/s
視程10km以上
全天の4割程度の雲 雲底高度 610m
5日6時 MSK ~ 5日19時 MSK に一時的に
風向・風速北北東 10m/s 瞬間風速 15m/s
5日19時 MSK ~ 5日21時 MSK に徐々に
風向・風速北北西 3m/s 瞬間風速 9m/s
TAF UWWW 050152Z 0503/0603 01006G12MPS 9999 SCT020 TX21/0511Z TN10/0602Z
TEMPO 0503/0516 03010G15MPS
BECMG 0516/0518 33003G09MPS